Terminal Aerodrome Forecast
Issued by NWS

Home | Current Version | Previous Version | Text Only | Print | Product List | Glossary Off
Versions: 1 2 3 4 5 6 7 8 9 10 11 12 13 14 15 16 17 18 19 20 21 22 23 24

000
FTUS43 KBIS 281400 AAA
TAFDIK
TAF AMD
KDIK 281434Z 2815/2912 03016G20KT P6SM VCSH BKN012 OVC020
      TEMPO 2818/2822 BKN025 OVC035
     FM290200 06014KT 4SM BR VCSH BKN010 OVC020
     FM290600 09010KT 2SM BR VCSH OVC008=

USA.gov is the U.S. government's official web portal to all federal, state and local government web resources and services.